sensor_id;sensor_type;location;lat;lon;timestamp;P1;durP1;ratioP1;P2;durP2;ratioP2
22525;SDS011;11429;50.842;4.386;2022-09-12T00:01:56;12.27;;;9.55;;
22525;SDS011;11429;50.842;4.386;2022-09-12T00:04:22;14.73;;;10.13;;
22525;SDS011;11429;50.842;4.386;2022-09-12T00:06:48;17.02;;;10.63;;
22525;SDS011;11429;50.842;4.386;2022-09-12T00:09:14;11.68;;;10.07;;
22525;SDS011;11429;50.842;4.386;2022-09-12T00:11:41;14.20;;;10.00;;
22525;SDS011;11429;50.842;4.386;2022-09-12T00:14:10;12.65;;;9.27;;
22525;SDS011;11429;50.842;4.386;2022-09-12T00:16:40;12.68;;;9.68;;
22525;SDS011;11429;50.842;4.386;2022-09-12T00:19:07;13.77;;;10.23;;
22525;SDS011;11429;50.842;4.386;2022-09-12T00:21:35;11.32;;;9.73;;
22525;SDS011;11429;50.842;4.386;2022-09-12T00:24:01;12.38;;;9.85;;
22525;SDS011;11429;50.842;4.386;2022-09-12T00:26:28;11.73;;;10.52;;
22525;SDS011;11429;50.842;4.386;2022-09-12T00:28:53;10.77;;;9.65;;
22525;SDS011;11429;50.842;4.386;2022-09-12T00:31:20;12.32;;;10.13;;
22525;SDS011;11429;50.842;4.386;2022-09-12T00:33:48;10.95;;;9.43;;
22525;SDS011;11429;50.842;4.386;2022-09-12T00:36:20;13.13;;;10.07;;
22525;SDS011;11429;50.842;4.386;2022-09-12T00:38:48;11.27;;;10.05;;
22525;SDS011;11429;50.842;4.386;2022-09-12T00:43:45;10.98;;;9.65;;
22525;SDS011;11429;50.842;4.386;2022-09-12T00:46:15;11.68;;;9.70;;
22525;SDS011;11429;50.842;4.386;2022-09-12T00:48:46;11.73;;;10.57;;
22525;SDS011;11429;50.842;4.386;2022-09-12T00:51:18;15.10;;;10.35;;
22525;SDS011;11429;50.842;4.386;2022-09-12T00:53:45;14.35;;;10.95;;
22525;SDS011;11429;50.842;4.386;2022-09-12T00:56:13;11.55;;;10.13;;
22525;SDS011;11429;50.842;4.386;2022-09-12T00:58:43;12.20;;;10.35;;
22525;SDS011;11429;50.842;4.386;2022-09-12T01:01:32;10.68;;;9.57;;
22525;SDS011;11429;50.842;4.386;2022-09-12T01:03:59;11.43;;;10.15;;
22525;SDS011;11429;50.842;4.386;2022-09-12T01:06:35;11.82;;;10.20;;
22525;SDS011;11429;50.842;4.386;2022-09-12T01:09:04;11.80;;;10.07;;
22525;SDS011;11429;50.842;4.386;2022-09-12T01:11:31;12.73;;;9.70;;
22525;SDS011;11429;50.842;4.386;2022-09-12T01:14:00;11.80;;;9.68;;
22525;SDS011;11429;50.842;4.386;2022-09-12T01:16:26;12.27;;;10.00;;
22525;SDS011;11429;50.842;4.386;2022-09-12T01:24:49;11.10;;;9.60;;
22525;SDS011;11429;50.842;4.386;2022-09-12T01:35:38;13.65;;;9.90;;
22525;SDS011;11429;50.842;4.386;2022-09-12T01:43:52;11.18;;;10.07;;
22525;SDS011;11429;50.842;4.386;2022-09-12T01:49:28;11.55;;;10.35;;
22525;SDS011;11429;50.842;4.386;2022-09-12T01:52:21;14.68;;;11.48;;
22525;SDS011;11429;50.842;4.386;2022-09-12T01:54:50;11.32;;;9.60;;
22525;SDS011;11429;50.842;4.386;2022-09-12T01:57:34;11.88;;;10.05;;
22525;SDS011;11429;50.842;4.386;2022-09-12T02:00:08;11.43;;;10.25;;
22525;SDS011;11429;50.842;4.386;2022-09-12T02:05:08;11.85;;;10.10;;
22525;SDS011;11429;50.842;4.386;2022-09-12T02:07:43;13.73;;;10.75;;
22525;SDS011;11429;50.842;4.386;2022-09-12T02:10:24;16.83;;;11.63;;
22525;SDS011;11429;50.842;4.386;2022-09-12T02:12:59;13.38;;;10.57;;
22525;SDS011;11429;50.842;4.386;2022-09-12T02:15:33;12.35;;;10.68;;
22525;SDS011;11429;50.842;4.386;2022-09-12T02:18:13;12.50;;;10.48;;
22525;SDS011;11429;50.842;4.386;2022-09-12T02:20:42;11.00;;;9.88;;
22525;SDS011;11429;50.842;4.386;2022-09-12T02:23:21;12.55;;;10.90;;
22525;SDS011;11429;50.842;4.386;2022-09-12T02:25:51;12.05;;;10.77;;
22525;SDS011;11429;50.842;4.386;2022-09-12T02:28:22;14.38;;;11.45;;
22525;SDS011;11429;50.842;4.386;2022-09-12T02:30:59;11.15;;;9.98;;
22525;SDS011;11429;50.842;4.386;2022-09-12T02:33:48;14.20;;;10.90;;
22525;SDS011;11429;50.842;4.386;2022-09-12T02:39:22;12.35;;;10.77;;
22525;SDS011;11429;50.842;4.386;2022-09-12T02:41:51;12.50;;;10.82;;
22525;SDS011;11429;50.842;4.386;2022-09-12T02:44:21;12.95;;;10.70;;
22525;SDS011;11429;50.842;4.386;2022-09-12T02:46:50;12.85;;;10.48;;
22525;SDS011;11429;50.842;4.386;2022-09-12T02:49:19;13.00;;;10.73;;
22525;SDS011;11429;50.842;4.386;2022-09-12T02:51:46;13.43;;;10.35;;
22525;SDS011;11429;50.842;4.386;2022-09-12T02:54:13;13.38;;;11.20;;
22525;SDS011;11429;50.842;4.386;2022-09-12T02:56:42;13.23;;;11.20;;
22525;SDS011;11429;50.842;4.386;2022-09-12T02:59:10;14.20;;;11.00;;
22525;SDS011;11429;50.842;4.386;2022-09-12T03:09:52;12.82;;;10.95;;
22525;SDS011;11429;50.842;4.386;2022-09-12T03:12:41;14.43;;;11.93;;
22525;SDS011;11429;50.842;4.386;2022-09-12T03:21:07;13.02;;;11.23;;
22525;SDS011;11429;50.842;4.386;2022-09-12T03:23:47;12.90;;;11.30;;
22525;SDS011;11429;50.842;4.386;2022-09-12T03:26:26;12.80;;;11.18;;
22525;SDS011;11429;50.842;4.386;2022-09-12T03:28:59;14.13;;;11.45;;
22525;SDS011;11429;50.842;4.386;2022-09-12T03:31:27;11.48;;;9.82;;
22525;SDS011;11429;50.842;4.386;2022-09-12T03:33:53;11.93;;;10.20;;
22525;SDS011;11429;50.842;4.386;2022-09-12T03:36:20;12.52;;;9.65;;
22525;SDS011;11429;50.842;4.386;2022-09-12T03:38:48;12.05;;;10.13;;
22525;SDS011;11429;50.842;4.386;2022-09-12T03:41:13;11.90;;;10.23;;
22525;SDS011;11429;50.842;4.386;2022-09-12T03:43:39;12.88;;;10.65;;
22525;SDS011;11429;50.842;4.386;2022-09-12T03:46:05;12.23;;;10.10;;
22525;SDS011;11429;50.842;4.386;2022-09-12T03:48:31;11.45;;;9.38;;
22525;SDS011;11429;50.842;4.386;2022-09-12T03:51:00;10.85;;;9.75;;
22525;SDS011;11429;50.842;4.386;2022-09-12T03:53:27;12.07;;;9.48;;
22525;SDS011;11429;50.842;4.386;2022-09-12T03:55:53;11.98;;;10.70;;
22525;SDS011;11429;50.842;4.386;2022-09-12T03:58:19;13.05;;;9.68;;
22525;SDS011;11429;50.842;4.386;2022-09-12T04:00:45;14.13;;;10.98;;
22525;SDS011;11429;50.842;4.386;2022-09-12T04:03:11;13.68;;;9.95;;
22525;SDS011;11429;50.842;4.386;2022-09-12T04:05:36;12.65;;;10.60;;
22525;SDS011;11429;50.842;4.386;2022-09-12T04:08:02;12.02;;;10.18;;
22525;SDS011;11429;50.842;4.386;2022-09-12T04:10:27;13.80;;;10.98;;
22525;SDS011;11429;50.842;4.386;2022-09-12T04:12:53;11.98;;;10.43;;
22525;SDS011;11429;50.842;4.386;2022-09-12T04:15:19;12.75;;;10.38;;
22525;SDS011;11429;50.842;4.386;2022-09-12T04:17:44;13.35;;;10.60;;
22525;SDS011;11429;50.842;4.386;2022-09-12T04:20:10;15.43;;;12.48;;
22525;SDS011;11429;50.842;4.386;2022-09-12T04:22:36;14.32;;;10.95;;
22525;SDS011;11429;50.842;4.386;2022-09-12T04:25:01;14.68;;;11.40;;
22525;SDS011;11429;50.842;4.386;2022-09-12T04:27:27;15.45;;;11.18;;
22525;SDS011;11429;50.842;4.386;2022-09-12T04:29:53;17.27;;;12.52;;
22525;SDS011;11429;50.842;4.386;2022-09-12T04:32:20;16.80;;;12.68;;
22525;SDS011;11429;50.842;4.386;2022-09-12T04:34:46;14.07;;;10.68;;
22525;SDS011;11429;50.842;4.386;2022-09-12T04:37:12;14.25;;;12.73;;
22525;SDS011;11429;50.842;4.386;2022-09-12T04:39:38;15.00;;;12.40;;
22525;SDS011;11429;50.842;4.386;2022-09-12T04:42:03;15.65;;;12.95;;
22525;SDS011;11429;50.842;4.386;2022-09-12T04:44:29;17.17;;;13.30;;
22525;SDS011;11429;50.842;4.386;2022-09-12T04:46:55;16.55;;;13.80;;
22525;SDS011;11429;50.842;4.386;2022-09-12T04:49:21;18.35;;;14.00;;
22525;SDS011;11429;50.842;4.386;2022-09-12T04:51:47;16.40;;;13.85;;
22525;SDS011;11429;50.842;4.386;2022-09-12T04:54:16;15.98;;;13.75;;
22525;SDS011;11429;50.842;4.386;2022-09-12T04:56:44;19.10;;;13.25;;
22525;SDS011;11429;50.842;4.386;2022-09-12T04:59:12;18.02;;;14.98;;
22525;SDS011;11429;50.842;4.386;2022-09-12T05:01:39;20.08;;;14.10;;
22525;SDS011;11429;50.842;4.386;2022-09-12T05:04:05;18.17;;;14.43;;
22525;SDS011;11429;50.842;4.386;2022-09-12T05:06:33;20.60;;;14.57;;
22525;SDS011;11429;50.842;4.386;2022-09-12T05:09:01;17.65;;;14.35;;
22525;SDS011;11429;50.842;4.386;2022-09-12T05:11:29;19.48;;;14.88;;
22525;SDS011;11429;50.842;4.386;2022-09-12T05:13:57;18.83;;;15.30;;
22525;SDS011;11429;50.842;4.386;2022-09-12T05:16:26;21.88;;;15.23;;
22525;SDS011;11429;50.842;4.386;2022-09-12T05:18:54;18.15;;;14.98;;
22525;SDS011;11429;50.842;4.386;2022-09-12T05:21:20;16.42;;;14.35;;
22525;SDS011;11429;50.842;4.386;2022-09-12T05:23:50;17.38;;;14.35;;
22525;SDS011;11429;50.842;4.386;2022-09-12T05:26:16;19.77;;;14.20;;
22525;SDS011;11429;50.842;4.386;2022-09-12T05:28:44;20.13;;;14.98;;
22525;SDS011;11429;50.842;4.386;2022-09-12T05:31:11;17.15;;;14.90;;
22525;SDS011;11429;50.842;4.386;2022-09-12T05:33:40;16.70;;;13.98;;
22525;SDS011;11429;50.842;4.386;2022-09-12T05:36:11;18.83;;;14.65;;
22525;SDS011;11429;50.842;4.386;2022-09-12T05:38:39;20.45;;;14.93;;
22525;SDS011;11429;50.842;4.386;2022-09-12T05:41:06;15.88;;;13.40;;
22525;SDS011;11429;50.842;4.386;2022-09-12T05:43:35;23.38;;;18.95;;
22525;SDS011;11429;50.842;4.386;2022-09-12T05:46:03;19.52;;;13.98;;
22525;SDS011;11429;50.842;4.386;2022-09-12T05:48:33;17.15;;;13.52;;
22525;SDS011;11429;50.842;4.386;2022-09-12T05:51:01;17.45;;;13.98;;
22525;SDS011;11429;50.842;4.386;2022-09-12T05:53:31;17.33;;;13.55;;
22525;SDS011;11429;50.842;4.386;2022-09-12T05:58:30;17.83;;;13.77;;
22525;SDS011;11429;50.842;4.386;2022-09-12T06:01:00;19.38;;;13.75;;
22525;SDS011;11429;50.842;4.386;2022-09-12T06:03:31;17.38;;;12.93;;
22525;SDS011;11429;50.842;4.386;2022-09-12T06:06:02;15.98;;;12.10;;
22525;SDS011;11429;50.842;4.386;2022-09-12T06:08:30;20.35;;;12.40;;
22525;SDS011;11429;50.842;4.386;2022-09-12T06:10:57;16.13;;;12.40;;
22525;SDS011;11429;50.842;4.386;2022-09-12T06:13:24;13.00;;;11.60;;
22525;SDS011;11429;50.842;4.386;2022-09-12T06:15:49;19.00;;;12.35;;
22525;SDS011;11429;50.842;4.386;2022-09-12T06:18:15;15.05;;;11.85;;
22525;SDS011;11429;50.842;4.386;2022-09-12T06:20:41;16.42;;;12.13;;
22525;SDS011;11429;50.842;4.386;2022-09-12T06:23:06;16.80;;;12.35;;
22525;SDS011;11429;50.842;4.386;2022-09-12T06:25:32;14.32;;;11.13;;
22525;SDS011;11429;50.842;4.386;2022-09-12T06:27:58;14.00;;;10.65;;
22525;SDS011;11429;50.842;4.386;2022-09-12T06:30:24;13.60;;;9.90;;
22525;SDS011;11429;50.842;4.386;2022-09-12T06:32:49;12.80;;;10.07;;
22525;SDS011;11429;50.842;4.386;2022-09-12T06:35:15;11.73;;;8.77;;
22525;SDS011;11429;50.842;4.386;2022-09-12T06:37:42;9.95;;;8.68;;
22525;SDS011;11429;50.842;4.386;2022-09-12T06:40:09;9.15;;;7.82;;
22525;SDS011;11429;50.842;4.386;2022-09-12T06:42:36;10.80;;;9.18;;
22525;SDS011;11429;50.842;4.386;2022-09-12T06:45:02;12.68;;;9.10;;
22525;SDS011;11429;50.842;4.386;2022-09-12T06:47:27;10.05;;;8.93;;
22525;SDS011;11429;50.842;4.386;2022-09-12T06:49:53;12.63;;;9.05;;
22525;SDS011;11429;50.842;4.386;2022-09-12T06:52:19;11.13;;;8.77;;
22525;SDS011;11429;50.842;4.386;2022-09-12T06:54:44;9.63;;;8.63;;
22525;SDS011;11429;50.842;4.386;2022-09-12T06:57:11;10.25;;;8.85;;
22525;SDS011;11429;50.842;4.386;2022-09-12T06:59:37;10.50;;;8.35;;
22525;SDS011;11429;50.842;4.386;2022-09-12T07:02:02;10.70;;;9.05;;
22525;SDS011;11429;50.842;4.386;2022-09-12T07:04:28;9.23;;;8.07;;
22525;SDS011;11429;50.842;4.386;2022-09-12T07:06:55;10.43;;;7.80;;
22525;SDS011;11429;50.842;4.386;2022-09-12T07:09:21;11.23;;;8.43;;
22525;SDS011;11429;50.842;4.386;2022-09-12T07:11:46;9.90;;;8.00;;
22525;SDS011;11429;50.842;4.386;2022-09-12T07:14:12;9.00;;;7.45;;
22525;SDS011;11429;50.842;4.386;2022-09-12T07:16:38;11.10;;;7.32;;
22525;SDS011;11429;50.842;4.386;2022-09-12T07:19:05;8.23;;;7.25;;
22525;SDS011;11429;50.842;4.386;2022-09-12T07:21:32;8.63;;;6.82;;
22525;SDS011;11429;50.842;4.386;2022-09-12T07:24:02;10.13;;;6.22;;
22525;SDS011;11429;50.842;4.386;2022-09-12T07:26:28;9.52;;;6.82;;
22525;SDS011;11429;50.842;4.386;2022-09-12T07:28:54;9.45;;;6.40;;
22525;SDS011;11429;50.842;4.386;2022-09-12T07:31:22;6.65;;;5.80;;
22525;SDS011;11429;50.842;4.386;2022-09-12T07:33:50;6.53;;;5.75;;
22525;SDS011;11429;50.842;4.386;2022-09-12T07:36:17;10.05;;;5.93;;
22525;SDS011;11429;50.842;4.386;2022-09-12T07:38:44;7.82;;;6.10;;
22525;SDS011;11429;50.842;4.386;2022-09-12T07:41:11;9.05;;;5.57;;
22525;SDS011;11429;50.842;4.386;2022-09-12T07:43:44;8.23;;;5.32;;
22525;SDS011;11429;50.842;4.386;2022-09-12T07:46:10;5.82;;;5.00;;
22525;SDS011;11429;50.842;4.386;2022-09-12T07:48:37;5.68;;;4.85;;
22525;SDS011;11429;50.842;4.386;2022-09-12T07:51:04;6.18;;;5.30;;
22525;SDS011;11429;50.842;4.386;2022-09-12T07:53:32;5.55;;;4.30;;
22525;SDS011;11429;50.842;4.386;2022-09-12T07:56:00;8.02;;;5.38;;
22525;SDS011;11429;50.842;4.386;2022-09-12T07:58:28;6.18;;;4.60;;
22525;SDS011;11429;50.842;4.386;2022-09-12T08:01:00;7.75;;;4.78;;
22525;SDS011;11429;50.842;4.386;2022-09-12T08:03:29;6.97;;;4.55;;
22525;SDS011;11429;50.842;4.386;2022-09-12T08:06:01;6.60;;;4.75;;
22525;SDS011;11429;50.842;4.386;2022-09-12T08:08:48;7.93;;;4.80;;
22525;SDS011;11429;50.842;4.386;2022-09-12T08:11:15;8.30;;;5.55;;
22525;SDS011;11429;50.842;4.386;2022-09-12T08:13:43;9.45;;;4.75;;
22525;SDS011;11429;50.842;4.386;2022-09-12T08:16:16;6.38;;;4.75;;
22525;SDS011;11429;50.842;4.386;2022-09-12T08:18:45;10.18;;;4.65;;
22525;SDS011;11429;50.842;4.386;2022-09-12T08:21:12;6.18;;;4.50;;
22525;SDS011;11429;50.842;4.386;2022-09-12T08:23:39;4.78;;;3.97;;
22525;SDS011;11429;50.842;4.386;2022-09-12T08:26:05;7.20;;;4.03;;
22525;SDS011;11429;50.842;4.386;2022-09-12T08:28:31;4.97;;;3.83;;
22525;SDS011;11429;50.842;4.386;2022-09-12T08:31:05;5.88;;;4.85;;
22525;SDS011;11429;50.842;4.386;2022-09-12T08:33:32;6.38;;;4.40;;
22525;SDS011;11429;50.842;4.386;2022-09-12T08:38:36;6.35;;;4.63;;
22525;SDS011;11429;50.842;4.386;2022-09-12T08:49:12;5.95;;;4.25;;
22525;SDS011;11429;50.842;4.386;2022-09-12T08:51:43;5.45;;;3.63;;
22525;SDS011;11429;50.842;4.386;2022-09-12T08:54:18;9.00;;;3.83;;
22525;SDS011;11429;50.842;4.386;2022-09-12T08:56:48;4.68;;;3.22;;
22525;SDS011;11429;50.842;4.386;2022-09-12T08:59:14;4.50;;;3.00;;
22525;SDS011;11429;50.842;4.386;2022-09-12T09:01:41;7.30;;;3.20;;
22525;SDS011;11429;50.842;4.386;2022-09-12T09:12:16;5.82;;;3.33;;
22525;SDS011;11429;50.842;4.386;2022-09-12T09:15:16;7.95;;;4.05;;
22525;SDS011;11429;50.842;4.386;2022-09-12T09:18:11;5.80;;;2.83;;
22525;SDS011;11429;50.842;4.386;2022-09-12T09:23:54;4.47;;;3.00;;
22525;SDS011;11429;50.842;4.386;2022-09-12T09:26:17;3.78;;;2.95;;
22525;SDS011;11429;50.842;4.386;2022-09-12T09:28:58;7.35;;;2.63;;
22525;SDS011;11429;50.842;4.386;2022-09-12T09:31:33;4.15;;;2.72;;
22525;SDS011;11429;50.842;4.386;2022-09-12T09:34:04;4.30;;;2.35;;
22525;SDS011;11429;50.842;4.386;2022-09-12T09:36:50;4.00;;;2.40;;
22525;SDS011;11429;50.842;4.386;2022-09-12T09:44:43;4.45;;;2.25;;
22525;SDS011;11429;50.842;4.386;2022-09-12T09:47:12;7.13;;;1.83;;
22525;SDS011;11429;50.842;4.386;2022-09-12T09:49:39;6.45;;;2.58;;
22525;SDS011;11429;50.842;4.386;2022-09-12T09:52:06;5.30;;;2.25;;
22525;SDS011;11429;50.842;4.386;2022-09-12T09:54:36;3.60;;;2.05;;
22525;SDS011;11429;50.842;4.386;2022-09-12T10:05:29;3.83;;;2.25;;
22525;SDS011;11429;50.842;4.386;2022-09-12T10:08:08;3.22;;;2.33;;
22525;SDS011;11429;50.842;4.386;2022-09-12T10:10:34;4.85;;;2.10;;
22525;SDS011;11429;50.842;4.386;2022-09-12T10:13:17;3.33;;;2.00;;
22525;SDS011;11429;50.842;4.386;2022-09-12T10:16:02;4.13;;;1.67;;
22525;SDS011;11429;50.842;4.386;2022-09-12T10:18:39;3.38;;;1.95;;
22525;SDS011;11429;50.842;4.386;2022-09-12T10:21:18;3.20;;;1.50;;
22525;SDS011;11429;50.842;4.386;2022-09-12T10:23:49;4.53;;;1.65;;
22525;SDS011;11429;50.842;4.386;2022-09-12T10:26:23;5.15;;;2.05;;
22525;SDS011;11429;50.842;4.386;2022-09-12T10:28:51;3.30;;;1.67;;
22525;SDS011;11429;50.842;4.386;2022-09-12T10:31:23;4.03;;;1.63;;
22525;SDS011;11429;50.842;4.386;2022-09-12T10:33:53;4.95;;;2.45;;
22525;SDS011;11429;50.842;4.386;2022-09-12T10:36:22;5.47;;;2.00;;
22525;SDS011;11429;50.842;4.386;2022-09-12T10:38:56;3.42;;;2.10;;
22525;SDS011;11429;50.842;4.386;2022-09-12T10:41:24;8.30;;;1.90;;
22525;SDS011;11429;50.842;4.386;2022-09-12T10:43:51;3.70;;;1.98;;
22525;SDS011;11429;50.842;4.386;2022-09-12T10:48:44;3.97;;;1.90;;
22525;SDS011;11429;50.842;4.386;2022-09-12T10:53:48;4.22;;;3.40;;
22525;SDS011;11429;50.842;4.386;2022-09-12T10:56:18;3.65;;;2.08;;
22525;SDS011;11429;50.842;4.386;2022-09-12T11:01:59;2.37;;;1.97;;
22525;SDS011;11429;50.842;4.386;2022-09-12T11:04:28;2.92;;;1.63;;
22525;SDS011;11429;50.842;4.386;2022-09-12T11:12:46;3.92;;;1.60;;
22525;SDS011;11429;50.842;4.386;2022-09-12T11:20:39;3.88;;;1.80;;
22525;SDS011;11429;50.842;4.386;2022-09-12T11:23:24;2.38;;;1.77;;
22525;SDS011;11429;50.842;4.386;2022-09-12T11:28:32;3.83;;;2.20;;
22525;SDS011;11429;50.842;4.386;2022-09-12T11:33:50;3.90;;;2.00;;
22525;SDS011;11429;50.842;4.386;2022-09-12T11:39:02;3.97;;;2.13;;
22525;SDS011;11429;50.842;4.386;2022-09-12T11:41:49;5.93;;;2.30;;
22525;SDS011;11429;50.842;4.386;2022-09-12T11:44:26;4.40;;;2.33;;
22525;SDS011;11429;50.842;4.386;2022-09-12T11:47:00;3.85;;;2.25;;
22525;SDS011;11429;50.842;4.386;2022-09-12T11:49:32;4.18;;;1.92;;
22525;SDS011;11429;50.842;4.386;2022-09-12T11:54:38;4.55;;;2.10;;
22525;SDS011;11429;50.842;4.386;2022-09-12T12:00:01;2.85;;;1.90;;
22525;SDS011;11429;50.842;4.386;2022-09-12T12:05:24;5.93;;;2.20;;
22525;SDS011;11429;50.842;4.386;2022-09-12T12:08:07;5.88;;;1.65;;
22525;SDS011;11429;50.842;4.386;2022-09-12T12:13:49;3.03;;;1.70;;
22525;SDS011;11429;50.842;4.386;2022-09-12T12:16:05;3.47;;;1.60;;
22525;SDS011;11429;50.842;4.386;2022-09-12T12:18:36;3.13;;;1.80;;
22525;SDS011;11429;50.842;4.386;2022-09-12T12:21:20;3.50;;;1.63;;
22525;SDS011;11429;50.842;4.386;2022-09-12T12:45:43;2.92;;;1.40;;
22525;SDS011;11429;50.842;4.386;2022-09-12T12:47:59;3.65;;;1.60;;
22525;SDS011;11429;50.842;4.386;2022-09-12T12:50:32;2.00;;;1.30;;
22525;SDS011;11429;50.842;4.386;2022-09-12T12:53:43;4.50;;;1.80;;
22525;SDS011;11429;50.842;4.386;2022-09-12T12:55:50;3.78;;;1.58;;
22525;SDS011;11429;50.842;4.386;2022-09-12T12:58:27;4.50;;;1.60;;
22525;SDS011;11429;50.842;4.386;2022-09-12T13:01:20;3.55;;;1.58;;
22525;SDS011;11429;50.842;4.386;2022-09-12T13:04:01;4.63;;;1.80;;
22525;SDS011;11429;50.842;4.386;2022-09-12T13:06:37;4.10;;;1.63;;
22525;SDS011;11429;50.842;4.386;2022-09-12T13:11:58;3.63;;;1.40;;
22525;SDS011;11429;50.842;4.386;2022-09-12T13:14:35;1.52;;;1.42;;
22525;SDS011;11429;50.842;4.386;2022-09-12T13:17:19;1.80;;;1.30;;
22525;SDS011;11429;50.842;4.386;2022-09-12T13:19:46;2.70;;;1.25;;
22525;SDS011;11429;50.842;4.386;2022-09-12T13:22:13;2.53;;;1.48;;
22525;SDS011;11429;50.842;4.386;2022-09-12T13:24:43;2.30;;;1.58;;
22525;SDS011;11429;50.842;4.386;2022-09-12T13:27:16;4.53;;;1.58;;
22525;SDS011;11429;50.842;4.386;2022-09-12T13:29:46;3.05;;;1.55;;
22525;SDS011;11429;50.842;4.386;2022-09-12T13:32:12;2.28;;;1.42;;
22525;SDS011;11429;50.842;4.386;2022-09-12T13:35:23;4.60;;;1.90;;
22525;SDS011;11429;50.842;4.386;2022-09-12T13:40:44;3.78;;;1.30;;
22525;SDS011;11429;50.842;4.386;2022-09-12T13:43:42;3.05;;;1.50;;
22525;SDS011;11429;50.842;4.386;2022-09-12T13:46:12;1.80;;;1.30;;
22525;SDS011;11429;50.842;4.386;2022-09-12T13:51:20;2.03;;;1.40;;
22525;SDS011;11429;50.842;4.386;2022-09-12T13:53:49;5.40;;;1.40;;
22525;SDS011;11429;50.842;4.386;2022-09-12T13:56:16;4.35;;;1.63;;
22525;SDS011;11429;50.842;4.386;2022-09-12T13:58:50;2.85;;;1.20;;
22525;SDS011;11429;50.842;4.386;2022-09-12T14:01:17;2.13;;;1.23;;
22525;SDS011;11429;50.842;4.386;2022-09-12T14:03:52;3.70;;;1.33;;
22525;SDS011;11429;50.842;4.386;2022-09-12T14:09:14;3.40;;;1.42;;
22525;SDS011;11429;50.842;4.386;2022-09-12T14:11:47;1.60;;;1.20;;
22525;SDS011;11429;50.842;4.386;2022-09-12T14:16:58;4.10;;;1.73;;
22525;SDS011;11429;50.842;4.386;2022-09-12T14:19:24;3.72;;;1.80;;
22525;SDS011;11429;50.842;4.386;2022-09-12T14:21:51;2.17;;;1.15;;
22525;SDS011;11429;50.842;4.386;2022-09-12T14:24:18;4.03;;;1.55;;
22525;SDS011;11429;50.842;4.386;2022-09-12T14:26:47;2.55;;;1.40;;
22525;SDS011;11429;50.842;4.386;2022-09-12T14:29:14;3.70;;;1.65;;
22525;SDS011;11429;50.842;4.386;2022-09-12T14:31:41;2.28;;;1.40;;
22525;SDS011;11429;50.842;4.386;2022-09-12T14:36:46;2.20;;;1.40;;
22525;SDS011;11429;50.842;4.386;2022-09-12T14:41:46;2.58;;;1.10;;
22525;SDS011;11429;50.842;4.386;2022-09-12T14:44:16;3.08;;;1.42;;
22525;SDS011;11429;50.842;4.386;2022-09-12T14:46:45;1.73;;;1.30;;
22525;SDS011;11429;50.842;4.386;2022-09-12T14:49:16;3.33;;;1.20;;
22525;SDS011;11429;50.842;4.386;2022-09-12T14:51:57;3.40;;;1.67;;
22525;SDS011;11429;50.842;4.386;2022-09-12T14:57:04;3.13;;;1.25;;
22525;SDS011;11429;50.842;4.386;2022-09-12T14:59:41;2.33;;;1.42;;
22525;SDS011;11429;50.842;4.386;2022-09-12T15:04:49;1.77;;;1.48;;
22525;SDS011;11429;50.842;4.386;2022-09-12T15:09:48;2.45;;;1.45;;
22525;SDS011;11429;50.842;4.386;2022-09-12T15:12:14;2.38;;;1.80;;
22525;SDS011;11429;50.842;4.386;2022-09-12T15:14:39;2.25;;;1.27;;
22525;SDS011;11429;50.842;4.386;2022-09-12T15:17:05;4.90;;;1.40;;
22525;SDS011;11429;50.842;4.386;2022-09-12T15:19:31;6.40;;;1.25;;
22525;SDS011;11429;50.842;4.386;2022-09-12T15:21:56;2.17;;;1.60;;
22525;SDS011;11429;50.842;4.386;2022-09-12T15:24:22;1.88;;;1.00;;
22525;SDS011;11429;50.842;4.386;2022-09-12T15:26:48;4.00;;;1.10;;
22525;SDS011;11429;50.842;4.386;2022-09-12T15:29:14;2.15;;;0.90;;
22525;SDS011;11429;50.842;4.386;2022-09-12T15:31:40;2.22;;;1.25;;
22525;SDS011;11429;50.842;4.386;2022-09-12T15:34:09;3.15;;;1.00;;
22525;SDS011;11429;50.842;4.386;2022-09-12T15:36:36;2.85;;;1.10;;
22525;SDS011;11429;50.842;4.386;2022-09-12T15:39:03;2.47;;;1.20;;
22525;SDS011;11429;50.842;4.386;2022-09-12T15:41:32;3.20;;;1.10;;
22525;SDS011;11429;50.842;4.386;2022-09-12T15:44:02;3.03;;;1.23;;
22525;SDS011;11429;50.842;4.386;2022-09-12T15:46:29;1.83;;;0.85;;
22525;SDS011;11429;50.842;4.386;2022-09-12T15:48:55;2.38;;;1.10;;
22525;SDS011;11429;50.842;4.386;2022-09-12T15:51:21;2.90;;;1.20;;
22525;SDS011;11429;50.842;4.386;2022-09-12T15:53:47;3.00;;;1.40;;
22525;SDS011;11429;50.842;4.386;2022-09-12T15:56:15;1.48;;;1.00;;
22525;SDS011;11429;50.842;4.386;2022-09-12T15:58:42;4.85;;;1.10;;
22525;SDS011;11429;50.842;4.386;2022-09-12T16:01:11;4.05;;;1.20;;
22525;SDS011;11429;50.842;4.386;2022-09-12T16:03:38;2.92;;;1.20;;
22525;SDS011;11429;50.842;4.386;2022-09-12T16:06:03;1.92;;;1.02;;
22525;SDS011;11429;50.842;4.386;2022-09-12T16:08:32;7.32;;;1.70;;
22525;SDS011;11429;50.842;4.386;2022-09-12T16:11:04;2.58;;;1.45;;
22525;SDS011;11429;50.842;4.386;2022-09-12T16:13:35;3.60;;;1.40;;
22525;SDS011;11429;50.842;4.386;2022-09-12T16:16:01;5.95;;;1.55;;
22525;SDS011;11429;50.842;4.386;2022-09-12T16:18:27;7.13;;;2.08;;
22525;SDS011;11429;50.842;4.386;2022-09-12T16:20:53;4.00;;;1.27;;
22525;SDS011;11429;50.842;4.386;2022-09-12T16:23:20;6.18;;;1.30;;
22525;SDS011;11429;50.842;4.386;2022-09-12T16:25:55;4.13;;;1.08;;
22525;SDS011;11429;50.842;4.386;2022-09-12T16:28:24;7.00;;;1.40;;
22525;SDS011;11429;50.842;4.386;2022-09-12T16:30:54;3.35;;;1.38;;
22525;SDS011;11429;50.842;4.386;2022-09-12T16:33:25;3.55;;;1.23;;
22525;SDS011;11429;50.842;4.386;2022-09-12T16:35:51;4.57;;;1.30;;
22525;SDS011;11429;50.842;4.386;2022-09-12T16:38:21;3.03;;;1.45;;
22525;SDS011;11429;50.842;4.386;2022-09-12T16:40:47;3.08;;;1.40;;
22525;SDS011;11429;50.842;4.386;2022-09-12T16:43:14;3.47;;;1.30;;
22525;SDS011;11429;50.842;4.386;2022-09-12T16:45:44;4.93;;;1.42;;
22525;SDS011;11429;50.842;4.386;2022-09-12T16:48:10;5.68;;;1.80;;
22525;SDS011;11429;50.842;4.386;2022-09-12T16:50:35;3.58;;;1.80;;
22525;SDS011;11429;50.842;4.386;2022-09-12T16:53:01;4.35;;;1.73;;
22525;SDS011;11429;50.842;4.386;2022-09-12T16:55:27;5.80;;;1.25;;
22525;SDS011;11429;50.842;4.386;2022-09-12T16:57:53;7.05;;;1.67;;
22525;SDS011;11429;50.842;4.386;2022-09-12T17:00:19;3.13;;;1.45;;
22525;SDS011;11429;50.842;4.386;2022-09-12T17:02:45;2.72;;;1.10;;
22525;SDS011;11429;50.842;4.386;2022-09-12T17:05:12;1.70;;;1.20;;
22525;SDS011;11429;50.842;4.386;2022-09-12T17:07:40;3.42;;;1.13;;
22525;SDS011;11429;50.842;4.386;2022-09-12T17:10:06;2.58;;;1.02;;
22525;SDS011;11429;50.842;4.386;2022-09-12T17:12:32;2.65;;;1.20;;
22525;SDS011;11429;50.842;4.386;2022-09-12T17:14:58;1.50;;;0.98;;
22525;SDS011;11429;50.842;4.386;2022-09-12T17:17:24;4.28;;;1.20;;
22525;SDS011;11429;50.842;4.386;2022-09-12T17:19:50;9.55;;;1.80;;
22525;SDS011;11429;50.842;4.386;2022-09-12T17:22:17;6.97;;;1.95;;
22525;SDS011;11429;50.842;4.386;2022-09-12T17:24:43;1.80;;;1.20;;
22525;SDS011;11429;50.842;4.386;2022-09-12T17:27:08;5.53;;;1.85;;
22525;SDS011;11429;50.842;4.386;2022-09-12T17:29:34;5.68;;;1.48;;
22525;SDS011;11429;50.842;4.386;2022-09-12T17:32:01;5.55;;;1.42;;
22525;SDS011;11429;50.842;4.386;2022-09-12T17:34:27;5.13;;;1.60;;
22525;SDS011;11429;50.842;4.386;2022-09-12T17:36:52;5.00;;;1.73;;
22525;SDS011;11429;50.842;4.386;2022-09-12T17:39:18;6.85;;;1.77;;
22525;SDS011;11429;50.842;4.386;2022-09-12T17:41:44;6.95;;;2.08;;
22525;SDS011;11429;50.842;4.386;2022-09-12T17:44:12;6.47;;;2.20;;